Woodland Hills, CA

5:23 PM PST on March 02, 2015 (GMT -0800)
Santa Monica Municipal | Change Station
CLOSE
Current Station
Airport
Location: Santa Monica,
Elevation: 174 ft
Nearby Weather Stations

Elev 174 ft 34.02 °N, 118.45 °W | Updated 32 minutes ago

Mostly Cloudy
Mostly Cloudy
59 °F
Feels Like 59 °F
N
9
Wind Variable Wind from SSW

Today
High -- | Low -- °F
--% Chance of Precip.
Yesterday
High -- | Low -- °F
Precip. -- in
6:22 AM 5:51 PM
Waxing Gibbous, 94% visible
Pressure 29.92 in
Visibility 10.0 miles
Clouds Few 3000 ft
Scattered Clouds 4500 ft
Dew Point 43 °F
Humidity 55%
Rainfall 0.01 in
Snow Depth Not available.
UV 0 out of 12
Pollen 7.80 out of 12
Air Quality Not available.
Flu Activity Not available.
METAR KSMO 030051Z 21008KT 10SM FEW030 SCT045 15/06 A2992 RMK AO2 SLP131 T01500061 $

More Conditions Fewer Conditions

Pressure 29.92 in
Visibility 10.0 miles
Clouds Few 3000 ft
Scattered Clouds 4500 ft
Dew Point 43 °F
Humidity 55%
Rainfall 0.01 in
Snow Depth Not available.
UV 0 out of 12
Pollen 7.80 out of 12
Air Quality Not available.
Flu Activity Not available.
METAR KSMO 030051Z 21008KT 10SM FEW030 SCT045 15/06 A2992 RMK AO2 SLP131 T01500061 $

More Conditions Fewer Conditions

10-Day Weather Forecast

Almanac

Astronomy

Mar. 02, 2015 Rise Set
Actual Time
Civil Twilight
Nautical Twilight
Astronomical Twilight
Moon
Length of Visible Light
Length of Day
Tomorrow will be .
, % of the Moon is Illuminated

Today's Extremes

State Highs State Lows

Community

WunderPhotos

Upload Photos

1,802,020 photos uploaded!

WunderBlogs® & News

Nearby

Air Quality

  Air Quality AQ Index Pollutant
Not available.

Snow Depth

Station Depth Elevation

Earthquake Activity

City Distance Mag. Time & Date
Minimum magnitude displayed is 2.5.

Coastal Water Temperatures

Place Temperature

Nearby Weather Stations